Time;durP1;ratioP1;P1;durP2;ratioP2;P2;SDS_P1;SDS_P2;PMS_P1;PMS_P2;Temp;Humidity;BMP_temperature;BMP_pressure;BME280_temperature;BME280_humidity;BME280_pressure;Samples;Min_cycle;Max_cycle;Signal;HPM_P1;HPM_P2
2021/09/26 00:01:03;;;;;;;104.80;70.53;;;16.70;99.00;;;;;;5014890;28;20449;-67
2021/09/26 00:03:29;;;;;;;88.50;58.35;;;16.70;99.00;;;;;;5013445;28;20397;-66
2021/09/26 00:05:55;;;;;;;58.47;41.40;;;16.70;99.00;;;;;;4999739;28;20030;-65
2021/09/26 00:08:21;;;;;;;31.00;23.52;;;16.70;99.30;;;;;;4995416;28;20100;-66
2021/09/26 00:10:46;;;;;;;19.38;16.25;;;16.70;99.00;;;;;;4999121;28;20041;-66
2021/09/26 00:13:12;;;;;;;18.63;16.73;;;16.70;99.00;;;;;;5015230;28;20045;-67
2021/09/26 00:15:37;;;;;;;19.27;16.08;;;16.70;99.20;;;;;;5015073;28;20038;-67
2021/09/26 00:18:03;;;;;;;16.48;14.80;;;16.70;99.30;;;;;;5014365;28;20084;-65
2021/09/26 00:20:30;;;;;;;19.40;15.80;;;16.60;99.30;;;;;;5014832;28;20121;-68
2021/09/26 00:22:56;;;;;;;20.77;17.70;;;16.50;99.50;;;;;;5014332;28;20397;-67
2021/09/26 00:25:21;;;;;;;20.58;17.13;;;16.50;99.50;;;;;;5014947;28;20034;-67
2021/09/26 00:27:48;;;;;;;22.35;19.25;;;16.60;99.40;;;;;;5014137;28;20044;-68
2021/09/26 00:30:14;;;;;;;28.08;25.20;;;16.60;99.40;;;;;;5013993;28;20038;-65
2021/09/26 00:32:42;;;;;;;30.70;27.40;;;16.60;99.30;;;;;;5014526;28;20080;-66
2021/09/26 00:35:08;;;;;;;25.25;22.65;;;16.50;99.30;;;;;;5014219;28;20034;-65
2021/09/26 00:37:35;;;;;;;20.85;18.75;;;16.50;99.30;;;;;;5014601;28;20125;-66
2021/09/26 00:40:01;;;;;;;20.20;18.15;;;16.50;99.20;;;;;;5012674;28;20435;-66
2021/09/26 00:42:26;;;;;;;21.02;17.45;;;16.50;99.10;;;;;;5012915;28;20068;-66
2021/09/26 00:44:52;;;;;;;16.90;15.00;;;16.50;99.20;;;;;;5014546;28;20037;-65
2021/09/26 00:47:18;;;;;;;17.63;15.82;;;16.50;99.30;;;;;;5014362;28;20069;-66
2021/09/26 00:49:43;;;;;;;17.85;15.23;;;16.50;99.20;;;;;;5014533;28;20042;-66
2021/09/26 00:52:09;;;;;;;17.63;15.93;;;16.40;99.10;;;;;;5014162;28;20065;-67
2021/09/26 00:54:38;;;;;;;18.67;16.70;;;16.40;99.20;;;;;;5013946;28;20044;-66
2021/09/26 00:57:05;;;;;;;18.13;16.33;;;16.30;99.30;;;;;;5012482;28;20080;-67
2021/09/26 00:59:30;;;;;;;18.05;16.25;;;16.30;99.20;;;;;;5014157;28;20105;-65
2021/09/26 01:01:56;;;;;;;25.77;23.10;;;16.30;99.40;;;;;;5013838;28;20120;-67
2021/09/26 01:04:22;;;;;;;26.23;23.55;;;16.30;99.40;;;;;;5013751;28;20104;-65
2021/09/26 01:06:51;;;;;;;32.08;28.77;;;16.20;99.40;;;;;;5012842;28;20490;-66
2021/09/26 01:09:56;;;;;;;22.63;20.33;;;16.30;99.20;;;;;;5014122;28;20069;-66
2021/09/26 01:12:48;;;;;;;21.90;18.98;;;16.30;99.20;;;;;;5013588;28;20124;-65
2021/09/26 01:15:43;;;;;;;20.65;18.02;;;16.30;99.20;;;;;;5014081;28;20092;-65
2021/09/26 01:18:35;;;;;;;19.42;17.15;;;16.20;99.10;;;;;;5013739;28;20030;-66
2021/09/26 01:21:04;;;;;;;18.27;16.48;;;16.10;99.10;;;;;;5013335;28;20041;-65
2021/09/26 01:24:03;;;;;;;18.17;16.35;;;16.10;99.10;;;;;;5012378;28;20539;-67
2021/09/26 01:27:06;;;;;;;16.35;14.20;;;16.10;99.20;;;;;;5013886;28;20374;-66
2021/09/26 01:30:07;;;;;;;16.63;14.90;;;16.10;99.10;;;;;;4972404;28;20110;-65
2021/09/26 01:32:34;;;;;;;18.00;16.17;;;16.00;99.20;;;;;;5014106;28;20033;-66
2021/09/26 01:35:04;;;;;;;17.08;15.35;;;15.90;99.50;;;;;;5013470;28;20521;-65
2021/09/26 01:37:40;;;;;;;17.48;15.68;;;15.90;99.40;;;;;;5013094;28;20041;-65
2021/09/26 01:40:19;;;;;;;16.25;14.60;;;16.00;99.50;;;;;;5013385;28;20125;-66
2021/09/26 01:42:57;;;;;;;17.27;15.60;;;16.00;99.50;;;;;;5013174;28;20057;-66
2021/09/26 01:45:33;;;;;;;16.45;14.85;;;15.90;99.40;;;;;;5013356;28;20050;-67
2021/09/26 01:48:13;;;;;;;16.98;15.10;;;16.00;99.50;;;;;;5013316;28;20037;-66
2021/09/26 01:50:39;;;;;;;15.38;13.98;;;15.90;99.50;;;;;;5012151;28;20057;-65
2021/09/26 01:53:06;;;;;;;13.40;12.15;;;15.90;99.50;;;;;;5013081;28;20080;-66
2021/09/26 01:55:33;;;;;;;14.35;12.95;;;15.90;99.50;;;;;;5013185;28;20054;-64
2021/09/26 01:58:00;;;;;;;13.82;12.52;;;15.90;99.40;;;;;;5013273;28;20038;-65
2021/09/26 02:00:26;;;;;;;17.05;12.75;;;15.90;99.50;;;;;;5013121;28;20122;-66
2021/09/26 02:02:53;;;;;;;15.27;13.23;;;15.90;99.40;;;;;;5013780;28;20081;-66
2021/09/26 02:05:19;;;;;;;13.70;12.30;;;15.80;99.40;;;;;;5013142;28;20041;-65
2021/09/26 02:07:48;;;;;;;13.38;12.02;;;15.80;99.40;;;;;;5013578;28;20056;-65
2021/09/26 02:10:16;;;;;;;14.88;12.48;;;15.70;99.40;;;;;;5011945;28;20449;-65
2021/09/26 02:12:42;;;;;;;13.20;11.90;;;15.70;99.40;;;;;;5013055;28;20069;-66
2021/09/26 02:15:14;;;;;;;15.35;13.80;;;15.70;99.30;;;;;;5013716;28;20386;-67
2021/09/26 02:17:43;;;;;;;15.07;12.80;;;15.80;99.30;;;;;;5011475;28;20065;-67
2021/09/26 02:20:14;;;;;;;14.02;12.60;;;15.70;99.40;;;;;;5013186;28;20026;-67
2021/09/26 02:22:40;;;;;;;14.70;12.82;;;15.60;99.60;;;;;;5011418;28;20451;-66
2021/09/26 02:25:08;;;;;;;13.75;12.30;;;15.60;99.70;;;;;;5012922;28;20022;-66
2021/09/26 02:27:35;;;;;;;13.57;12.18;;;15.70;99.60;;;;;;5011306;28;20532;-67
2021/09/26 02:30:02;;;;;;;13.43;12.13;;;15.70;99.50;;;;;;5012576;28;20029;-65
2021/09/26 02:32:27;;;;;;;13.30;11.95;;;15.70;99.30;;;;;;5012709;28;20044;-65
2021/09/26 02:34:53;;;;;;;13.55;12.18;;;15.70;99.30;;;;;;5010339;28;20026;-67
2021/09/26 02:37:19;;;;;;;13.68;12.25;;;15.70;99.30;;;;;;5012229;28;20061;-67
2021/09/26 02:39:45;;;;;;;14.27;11.95;;;15.60;99.20;;;;;;5012767;28;20046;-66
2021/09/26 02:42:30;;;;;;;13.25;11.75;;;15.60;99.30;;;;;;5012440;28;20037;-65
2021/09/26 02:45:06;;;;;;;13.25;11.90;;;15.50;99.40;;;;;;5012574;28;20030;-65
2021/09/26 02:47:50;;;;;;;13.88;12.57;;;15.50;99.50;;;;;;5012988;28;20499;-65
2021/09/26 02:50:19;;;;;;;14.67;13.27;;;15.50;99.40;;;;;;5012608;28;20025;-65
2021/09/26 02:52:46;;;;;;;15.63;13.35;;;15.50;99.40;;;;;;5014232;28;20025;-67
2021/09/26 02:55:14;;;;;;;16.80;13.48;;;15.50;99.40;;;;;;5016193;28;20128;-65
2021/09/26 02:57:40;;;;;;;14.60;13.10;;;15.50;99.50;;;;;;5015986;28;20034;-65
2021/09/26 03:00:07;;;;;;;13.88;12.48;;;15.50;99.60;;;;;;5015204;28;20053;-66
2021/09/26 03:02:33;;;;;;;14.80;13.02;;;15.50;99.60;;;;;;5015830;28;20043;-67
2021/09/26 03:04:59;;;;;;;15.50;14.00;;;15.40;99.60;;;;;;4998273;28;20096;-65
2021/09/26 03:07:25;;;;;;;14.35;12.93;;;15.40;99.50;;;;;;5014243;28;20046;-67
2021/09/26 03:09:50;;;;;;;14.20;12.70;;;15.50;99.60;;;;;;5015505;28;20030;-65
2021/09/26 03:12:18;;;;;;;15.05;13.13;;;15.50;99.50;;;;;;5015326;28;20061;-65
2021/09/26 03:14:44;;;;;;;15.27;13.80;;;15.50;99.60;;;;;;5015944;28;20524;-65
2021/09/26 03:17:10;;;;;;;16.92;15.13;;;15.40;99.50;;;;;;5015803;28;20025;-66
2021/09/26 03:19:36;;;;;;;15.85;14.23;;;15.40;99.50;;;;;;5015624;28;20029;-67
2021/09/26 03:22:03;;;;;;;17.00;15.25;;;15.40;99.70;;;;;;5015384;28;20398;-66
2021/09/26 03:24:29;;;;;;;16.75;14.43;;;15.40;99.70;;;;;;5013917;28;20038;-65
2021/09/26 03:26:56;;;;;;;17.55;14.98;;;15.40;99.80;;;;;;5015460;28;20060;-65
2021/09/26 03:29:22;;;;;;;16.88;15.13;;;15.40;99.80;;;;;;5015336;28;20112;-65
2021/09/26 03:31:48;;;;;;;16.23;14.52;;;15.40;99.70;;;;;;5015784;28;20490;-65
2021/09/26 03:34:14;;;;;;;15.68;14.13;;;15.40;99.70;;;;;;5016333;28;20065;-65
2021/09/26 03:36:39;;;;;;;17.02;15.32;;;15.40;99.80;;;;;;5015689;28;20045;-66
2021/09/26 03:39:05;;;;;;;19.50;17.42;;;15.40;99.90;;;;;;5014183;28;20041;-65
2021/09/26 03:41:30;;;;;;;20.33;18.15;;;15.40;99.90;;;;;;5015654;28;20038;-65
2021/09/26 03:43:56;;;;;;;20.33;18.42;;;15.50;99.90;;;;;;5015552;28;20038;-64
2021/09/26 03:46:22;;;;;;;20.92;18.83;;;15.50;99.90;;;;;;5013954;28;20417;-66
2021/09/26 03:48:47;;;;;;;20.55;18.38;;;15.40;99.90;;;;;;5015413;28;20037;-64
2021/09/26 03:51:13;;;;;;;22.23;20.02;;;15.40;99.90;;;;;;5014818;28;20044;-64
2021/09/26 03:53:39;;;;;;;25.30;22.73;;;15.40;99.90;;;;;;5014841;28;20062;-64
2021/09/26 03:56:04;;;;;;;21.33;19.25;;;15.30;99.90;;;;;;5013585;28;20103;-65
2021/09/26 03:58:30;;;;;;;23.08;20.80;;;15.30;99.90;;;;;;5014466;28;20084;-66
2021/09/26 04:00:56;;;;;;;22.10;19.88;;;15.30;99.90;;;;;;5014758;28;20033;-65
2021/09/26 04:03:21;;;;;;;22.15;19.98;;;15.30;99.90;;;;;;5013392;28;20049;-65
2021/09/26 04:05:47;;;;;;;24.95;22.45;;;15.40;99.90;;;;;;5014774;28;20062;-65
2021/09/26 04:08:13;;;;;;;25.52;22.92;;;15.40;99.90;;;;;;5014256;28;20030;-66
2021/09/26 04:10:40;;;;;;;24.00;21.70;;;15.40;99.90;;;;;;5014972;28;20037;-66
2021/09/26 04:13:05;;;;;;;23.40;20.38;;;15.40;99.90;;;;;;5014419;28;20045;-65
2021/09/26 04:15:31;;;;;;;24.10;21.70;;;15.40;99.90;;;;;;5014618;28;20038;-65
2021/09/26 04:17:56;;;;;;;23.55;21.15;;;15.40;99.90;;;;;;5013521;28;20033;-64
2021/09/26 04:20:22;;;;;;;22.45;20.35;;;15.40;99.90;;;;;;5013181;28;20041;-65
2021/09/26 04:22:48;;;;;;;22.48;20.25;;;15.40;99.90;;;;;;5013448;28;20080;-66
2021/09/26 04:25:13;;;;;;;22.83;20.63;;;15.50;99.90;;;;;;5014385;28;20053;-66
2021/09/26 04:27:39;;;;;;;23.67;21.30;;;15.50;99.90;;;;;;5014546;28;20045;-66
2021/09/26 04:30:06;;;;;;;24.35;21.95;;;15.40;99.90;;;;;;5013848;28;20038;-66
2021/09/26 04:32:33;;;;;;;23.80;21.50;;;15.40;99.90;;;;;;5014936;28;20061;-66
2021/09/26 04:34:58;;;;;;;23.25;20.50;;;15.50;99.90;;;;;;5014189;28;20120;-66
2021/09/26 04:37:24;;;;;;;21.48;19.35;;;15.40;99.90;;;;;;5013300;28;20553;-65
2021/09/26 04:39:49;;;;;;;21.98;19.83;;;15.50;99.90;;;;;;5013366;28;20093;-66
2021/09/26 04:42:15;;;;;;;22.17;20.05;;;15.50;99.90;;;;;;5014400;28;20037;-67
2021/09/26 04:44:41;;;;;;;23.65;21.33;;;15.50;99.90;;;;;;5013978;28;20034;-66
2021/09/26 04:47:06;;;;;;;22.80;20.60;;;15.50;99.90;;;;;;5014150;28;20044;-66
2021/09/26 04:49:32;;;;;;;23.90;21.50;;;15.50;99.90;;;;;;5014834;28;20099;-67
2021/09/26 04:51:59;;;;;;;23.63;21.27;;;15.20;99.90;;;;;;5014386;28;20129;-68
2021/09/26 04:54:25;;;;;;;22.55;20.35;;;15.30;99.90;;;;;;5014351;28;20076;-66
2021/09/26 04:56:51;;;;;;;21.17;19.10;;;15.30;99.90;;;;;;5013982;28;20124;-66
2021/09/26 04:59:17;;;;;;;22.90;20.58;;;15.30;99.90;;;;;;5014032;28;20045;-66
2021/09/26 05:01:43;;;;;;;37.22;32.88;;;15.40;99.90;;;;;;5013223;28;20042;-66
2021/09/26 05:04:09;;;;;;;30.65;26.02;;;15.40;99.90;;;;;;5013200;28;20022;-65
2021/09/26 05:06:34;;;;;;;25.50;22.40;;;15.40;99.90;;;;;;5013338;28;20037;-66
2021/09/26 05:09:00;;;;;;;21.90;19.65;;;15.50;99.90;;;;;;5013539;28;20588;-66
2021/09/26 05:11:26;;;;;;;21.23;19.17;;;15.50;99.90;;;;;;5013339;28;20112;-66
2021/09/26 05:13:51;;;;;;;22.52;20.27;;;15.50;99.90;;;;;;5011673;28;20077;-66
2021/09/26 05:16:17;;;;;;;22.17;19.88;;;15.50;99.90;;;;;;5013655;28;20038;-66
2021/09/26 05:18:43;;;;;;;22.10;19.80;;;15.50;99.90;;;;;;5013106;28;20038;-66
2021/09/26 05:21:09;;;;;;;24.70;22.02;;;15.50;99.90;;;;;;5013536;28;20041;-67
2021/09/26 05:23:35;;;;;;;23.05;20.73;;;15.40;99.90;;;;;;5013128;28;20493;-67
2021/09/26 05:26:01;;;;;;;22.42;19.92;;;15.40;99.90;;;;;;5013726;28;20104;-67
2021/09/26 05:28:27;;;;;;;24.45;22.05;;;15.40;99.90;;;;;;5013454;28;20085;-64
2021/09/26 05:30:52;;;;;;;21.35;19.25;;;15.40;99.90;;;;;;5011982;28;20045;-66
2021/09/26 05:33:18;;;;;;;22.35;20.00;;;15.40;99.90;;;;;;5012854;28;20099;-66
2021/09/26 05:35:44;;;;;;;21.00;18.95;;;15.40;99.90;;;;;;5013224;28;20022;-65
2021/09/26 05:38:09;;;;;;;20.50;18.50;;;15.50;99.90;;;;;;5013592;28;20061;-65
2021/09/26 05:40:35;;;;;;;19.38;17.50;;;15.60;99.90;;;;;;5013349;28;20045;-65
2021/09/26 05:43:00;;;;;;;21.10;18.92;;;15.60;99.90;;;;;;5011398;28;20104;-67
2021/09/26 05:45:27;;;;;;;20.17;18.02;;;15.60;99.90;;;;;;5014180;28;20030;-65
2021/09/26 05:47:52;;;;;;;19.90;17.98;;;15.70;99.90;;;;;;5014457;28;20049;-64
2021/09/26 05:50:19;;;;;;;19.60;17.80;;;15.70;99.90;;;;;;5013201;28;20041;-66
2021/09/26 05:52:45;;;;;;;21.15;18.95;;;15.80;99.90;;;;;;5011678;28;20125;-65
2021/09/26 05:55:10;;;;;;;18.95;16.73;;;15.90;99.90;;;;;;5013029;28;20113;-63
2021/09/26 05:57:38;;;;;;;19.38;17.45;;;16.00;99.90;;;;;;5011670;28;20183;-63
2021/09/26 06:00:05;;;;;;;20.52;18.33;;;16.10;99.90;;;;;;5012897;28;20049;-63
2021/09/26 06:02:30;;;;;;;19.45;17.55;;;16.20;99.90;;;;;;5004387;28;20042;-64
2021/09/26 06:04:56;;;;;;;19.45;17.42;;;16.20;99.90;;;;;;4993352;28;20089;-64
2021/09/26 06:07:22;;;;;;;19.92;17.33;;;16.30;99.90;;;;;;4993099;28;20247;-64
2021/09/26 06:09:47;;;;;;;19.08;17.23;;;16.40;99.90;;;;;;4993263;28;20039;-64
2021/09/26 06:12:13;;;;;;;19.90;17.83;;;16.40;99.90;;;;;;5025033;28;20104;-63
2021/09/26 06:14:40;;;;;;;19.58;17.63;;;16.40;99.80;;;;;;5032522;28;20045;-63
2021/09/26 06:17:06;;;;;;;20.33;17.67;;;16.30;99.90;;;;;;5032287;28;20041;-65
2021/09/26 06:19:32;;;;;;;18.02;16.33;;;16.40;99.90;;;;;;5032034;28;20121;-67
2021/09/26 06:21:58;;;;;;;19.02;17.05;;;16.50;99.90;;;;;;5007753;28;20452;-67
2021/09/26 06:24:23;;;;;;;18.85;17.02;;;16.50;99.70;;;;;;4977391;28;20042;-68
2021/09/26 06:26:50;;;;;;;18.10;16.20;;;16.50;99.50;;;;;;5014180;28;20037;-65
2021/09/26 06:29:16;;;;;;;19.85;17.73;;;16.40;99.60;;;;;;5016579;28;20034;-67
2021/09/26 06:31:41;;;;;;;18.30;16.40;;;16.40;99.70;;;;;;5007748;28;20548;-65
2021/09/26 06:34:07;;;;;;;19.10;17.30;;;16.40;99.80;;;;;;5000668;28;20046;-66
2021/09/26 06:36:33;;;;;;;23.15;19.05;;;16.50;99.80;;;;;;4995532;28;20374;-65
2021/09/26 06:38:59;;;;;;;19.40;17.52;;;16.50;99.80;;;;;;5009050;28;20030;-65
2021/09/26 06:41:26;;;;;;;18.60;16.85;;;16.50;99.90;;;;;;5016495;28;20413;-66
2021/09/26 06:43:52;;;;;;;18.15;16.45;;;16.50;99.90;;;;;;5015852;28;20338;-65
2021/09/26 06:46:18;;;;;;;31.15;27.13;;;16.60;99.90;;;;;;5015097;28;20038;-66
2021/09/26 06:48:44;;;;;;;27.05;22.60;;;16.70;99.70;;;;;;5016398;28;20497;-66
2021/09/26 06:51:11;;;;;;;24.95;20.95;;;16.70;99.60;;;;;;4998115;28;20030;-64
2021/09/26 06:53:37;;;;;;;20.13;17.95;;;16.80;99.40;;;;;;5015765;28;20091;-67
2021/09/26 06:56:03;;;;;;;19.63;17.10;;;16.90;99.40;;;;;;5016174;28;20444;-67
2021/09/26 06:58:28;;;;;;;17.70;15.90;;;16.90;99.40;;;;;;5015893;28;20109;-65
2021/09/26 07:00:54;;;;;;;26.30;17.90;;;16.90;99.30;;;;;;5014686;28;20056;-66
2021/09/26 07:03:20;;;;;;;19.73;17.80;;;16.90;99.40;;;;;;5015665;28;20121;-65
2021/09/26 07:05:46;;;;;;;18.75;16.88;;;16.90;99.60;;;;;;5015831;28;20034;-67
2021/09/26 07:08:11;;;;;;;26.50;22.83;;;16.80;99.30;;;;;;5014654;28;20026;-66
2021/09/26 07:10:37;;;;;;;34.13;27.65;;;16.80;99.40;;;;;;5013111;28;20035;-67
2021/09/26 07:13:09;;;;;;;22.60;20.10;;;16.90;99.50;;;;;;4994880;28;20042;-66
2021/09/26 07:15:34;;;;;;;20.63;17.55;;;16.80;99.30;;;;;;4996198;28;20486;-65
2021/09/26 07:18:03;;;;;;;21.63;18.75;;;16.90;99.20;;;;;;4995837;28;20034;-66
2021/09/26 07:20:31;;;;;;;19.17;17.17;;;17.00;99.00;;;;;;5002683;28;20026;-66
2021/09/26 07:22:59;;;;;;;17.38;15.57;;;17.10;98.80;;;;;;5014314;28;20118;-66
2021/09/26 07:25:25;;;;;;;20.20;16.83;;;17.20;98.70;;;;;;5014068;28;20030;-65
2021/09/26 07:27:51;;;;;;;17.60;15.80;;;17.30;98.60;;;;;;5014222;28;20107;-65
2021/09/26 07:30:17;;;;;;;17.98;16.05;;;17.40;98.40;;;;;;5007002;28;20098;-66
2021/09/26 07:32:43;;;;;;;16.30;14.60;;;17.40;98.20;;;;;;5002042;28;20517;-66
2021/09/26 07:35:10;;;;;;;16.52;14.90;;;17.40;98.10;;;;;;4995587;28;20039;-65
2021/09/26 07:37:35;;;;;;;17.98;14.75;;;17.40;98.00;;;;;;5014349;28;20026;-66
2021/09/26 07:40:02;;;;;;;15.82;14.23;;;17.40;98.00;;;;;;5015356;28;20029;-65
2021/09/26 07:42:27;;;;;;;16.15;14.00;;;17.40;98.00;;;;;;5015286;28;20041;-65
2021/09/26 07:44:53;;;;;;;13.95;12.55;;;17.50;98.00;;;;;;5013573;28;20374;-66
2021/09/26 07:47:18;;;;;;;14.10;12.70;;;17.60;97.90;;;;;;5013442;28;20401;-66
2021/09/26 07:49:44;;;;;;;16.05;14.43;;;17.70;97.80;;;;;;5013465;28;20042;-66
2021/09/26 07:52:10;;;;;;;14.02;12.73;;;17.90;97.60;;;;;;5020689;28;20037;-65
2021/09/26 07:54:35;;;;;;;14.35;12.82;;;18.00;97.60;;;;;;5035871;28;20577;-65
2021/09/26 07:57:01;;;;;;;16.73;15.02;;;18.10;97.40;;;;;;5012955;28;20041;-66
2021/09/26 07:59:27;;;;;;;15.40;13.38;;;18.20;97.30;;;;;;5013235;28;20041;-64
2021/09/26 08:01:52;;;;;;;14.60;12.98;;;18.20;97.30;;;;;;5014529;28;20064;-67
2021/09/26 08:04:18;;;;;;;15.73;12.98;;;18.30;97.30;;;;;;5037746;28;20084;-65
2021/09/26 08:06:44;;;;;;;13.57;12.27;;;18.50;97.20;;;;;;5015175;28;20508;-66
2021/09/26 08:09:10;;;;;;;13.35;12.02;;;18.50;97.20;;;;;;5032836;28;20040;-65
2021/09/26 08:11:36;;;;;;;18.38;13.02;;;18.60;97.10;;;;;;5015800;28;20133;-64
2021/09/26 08:14:01;;;;;;;16.02;14.30;;;18.70;97.00;;;;;;5014000;28;20034;-65
2021/09/26 08:16:28;;;;;;;17.17;14.32;;;18.70;97.00;;;;;;5030524;28;20032;-64
2021/09/26 08:18:53;;;;;;;23.13;20.17;;;18.80;97.60;;;;;;5022935;28;20042;-64
2021/09/26 08:21:21;;;;;;;21.85;19.25;;;18.90;97.30;;;;;;5012607;28;20436;-65
2021/09/26 08:23:47;;;;;;;16.88;14.05;;;19.10;97.20;;;;;;5013666;28;20029;-66
2021/09/26 08:26:12;;;;;;;15.02;13.48;;;19.20;96.80;;;;;;5011708;28;20042;-62
2021/09/26 08:28:38;;;;;;;32.67;25.17;;;19.40;96.50;;;;;;5013223;28;20029;-65
2021/09/26 08:31:04;;;;;;;14.70;13.00;;;19.40;96.40;;;;;;5013577;28;20044;-64
2021/09/26 08:33:29;;;;;;;13.98;12.57;;;19.50;96.00;;;;;;5010875;28;20041;-64
2021/09/26 08:35:55;;;;;;;15.27;13.45;;;19.60;96.00;;;;;;5012402;28;20477;-66
2021/09/26 08:38:21;;;;;;;14.13;12.63;;;19.70;95.70;;;;;;5012227;28;20125;-65
2021/09/26 08:40:49;;;;;;;15.10;12.95;;;19.60;95.90;;;;;;5011517;28;20022;-65
2021/09/26 08:43:21;;;;;;;13.05;11.75;;;19.70;95.80;;;;;;5010997;28;20631;-66
2021/09/26 08:45:47;;;;;;;12.88;11.52;;;19.70;95.60;;;;;;5011208;28;20022;-64
2021/09/26 08:48:13;;;;;;;13.88;12.13;;;19.80;95.50;;;;;;5013051;28;20034;-64
2021/09/26 08:50:39;;;;;;;14.48;13.05;;;20.00;95.30;;;;;;5011905;28;20038;-65
2021/09/26 08:53:08;;;;;;;14.65;13.02;;;19.90;95.00;;;;;;5017938;28;20041;-64
2021/09/26 08:55:36;;;;;;;12.43;11.23;;;20.00;95.10;;;;;;5023730;28;20061;-67
2021/09/26 08:58:02;;;;;;;13.73;11.68;;;20.00;95.10;;;;;;5012152;28;20064;-64
2021/09/26 09:00:28;;;;;;;14.48;13.07;;;20.10;95.00;;;;;;5011789;28;20048;-64
2021/09/26 09:02:54;;;;;;;14.57;13.05;;;20.10;95.10;;;;;;5012018;28;20037;-64
2021/09/26 09:05:42;;;;;;;14.35;12.85;;;20.10;95.00;;;;;;5012594;28;20544;-65
2021/09/26 09:08:18;;;;;;;13.95;11.65;;;20.20;94.90;;;;;;5032938;28;20060;-64
2021/09/26 09:10:48;;;;;;;17.75;13.45;;;20.30;94.70;;;;;;5029515;28;20042;-63
2021/09/26 09:13:18;;;;;;;16.27;13.50;;;20.40;94.40;;;;;;5013132;28;20041;-64
2021/09/26 09:15:55;;;;;;;15.35;13.07;;;20.50;94.20;;;;;;5013357;28;20038;-64
2021/09/26 09:18:21;;;;;;;15.13;12.35;;;20.60;94.10;;;;;;5013230;28;20022;-63
2021/09/26 09:20:48;;;;;;;14.00;12.60;;;20.60;94.20;;;;;;5014428;28;20358;-65
2021/09/26 09:23:17;;;;;;;14.05;12.70;;;20.70;94.20;;;;;;5013758;28;20059;-65
2021/09/26 09:25:44;;;;;;;14.95;12.75;;;20.70;94.10;;;;;;5013667;28;20108;-64
2021/09/26 09:28:16;;;;;;;14.65;13.27;;;20.80;94.10;;;;;;5013454;28;20128;-66
2021/09/26 09:31:03;;;;;;;16.50;14.80;;;20.80;93.90;;;;;;5013370;28;20127;-64
2021/09/26 09:33:41;;;;;;;13.77;12.45;;;20.80;93.90;;;;;;5012650;28;20064;-66
2021/09/26 09:36:23;;;;;;;13.15;11.77;;;20.90;93.90;;;;;;5012852;28;20041;-66
2021/09/26 09:38:51;;;;;;;14.38;12.63;;;21.00;93.90;;;;;;5005908;28;20034;-64
2021/09/26 09:41:46;;;;;;;14.70;13.10;;;21.10;93.70;;;;;;5011573;28;20029;-65
2021/09/26 09:44:15;;;;;;;14.48;13.07;;;21.20;93.70;;;;;;5012372;28;20041;-65
2021/09/26 09:46:47;;;;;;;14.27;12.77;;;21.30;93.50;;;;;;5021914;28;20048;-65
2021/09/26 09:49:20;;;;;;;14.70;13.02;;;21.30;93.10;;;;;;5013655;28;20041;-66
2021/09/26 09:51:56;;;;;;;14.90;13.40;;;21.30;93.10;;;;;;4995948;28;20037;-67
2021/09/26 09:54:41;;;;;;;15.60;13.93;;;21.40;93.30;;;;;;5011862;28;20030;-67
2021/09/26 09:57:30;;;;;;;15.18;13.45;;;21.40;93.20;;;;;;5011513;28;20045;-67
2021/09/26 09:59:56;;;;;;;15.85;14.15;;;21.50;93.10;;;;;;5012638;28;20084;-68
2021/09/26 10:02:33;;;;;;;15.48;13.98;;;21.60;93.00;;;;;;5013190;28;20489;-67
2021/09/26 10:05:00;;;;;;;15.20;13.63;;;21.50;93.10;;;;;;5010942;28;20057;-65
2021/09/26 10:07:28;;;;;;;13.10;11.90;;;21.60;93.30;;;;;;5015684;28;20539;-67
2021/09/26 10:09:55;;;;;;;18.95;17.10;;;21.70;93.30;;;;;;5015755;28;20481;-67
2021/09/26 10:12:29;;;;;;;19.20;17.17;;;21.90;93.00;;;;;;5015174;28;20029;-66
2021/09/26 10:14:57;;;;;;;18.13;13.70;;;22.00;92.70;;;;;;5015507;28;20041;-64
2021/09/26 10:17:24;;;;;;;14.43;12.70;;;22.00;92.70;;;;;;5017456;28;20037;-66
2021/09/26 10:19:50;;;;;;;14.57;11.65;;;22.00;92.80;;;;;;5013820;28;20436;-69
2021/09/26 10:22:16;;;;;;;13.07;11.73;;;22.20;92.80;;;;;;5015944;28;20041;-66
2021/09/26 10:24:45;;;;;;;13.38;11.82;;;22.30;92.80;;;;;;5015902;28;20026;-66
2021/09/26 10:27:13;;;;;;;15.07;13.52;;;22.40;92.70;;;;;;5015207;28;20140;-66
2021/09/26 10:29:41;;;;;;;13.55;12.15;;;22.40;92.50;;;;;;5025248;28;20042;-67
2021/09/26 10:32:09;;;;;;;12.57;11.27;;;22.50;92.50;;;;;;5009918;28;20557;-68
2021/09/26 10:34:38;;;;;;;12.68;11.38;;;22.50;92.40;;;;;;5022077;28;20030;-67
2021/09/26 10:37:06;;;;;;;18.92;13.27;;;22.70;92.40;;;;;;5013901;28;20033;-67
2021/09/26 10:39:32;;;;;;;13.65;12.23;;;22.80;92.30;;;;;;5015808;28;20041;-66
2021/09/26 10:42:12;;;;;;;13.35;11.93;;;22.80;92.60;;;;;;5016854;28;20030;-68
2021/09/26 10:44:52;;;;;;;15.95;13.43;;;22.90;92.10;;;;;;5015651;28;20081;-67
2021/09/26 10:47:26;;;;;;;15.10;12.80;;;23.00;92.00;;;;;;5016130;28;20070;-68
2021/09/26 10:50:07;;;;;;;12.68;11.38;;;23.00;92.00;;;;;;5016184;28;20548;-67
2021/09/26 10:52:36;;;;;;;13.38;12.02;;;23.10;92.00;;;;;;5015857;28;20049;-68
2021/09/26 10:55:27;;;;;;;15.75;12.27;;;23.10;92.10;;;;;;5016565;28;20025;-67
2021/09/26 10:58:12;;;;;;;13.38;12.07;;;23.20;91.70;;;;;;5006995;28;20034;-66
2021/09/26 11:00:57;;;;;;;13.80;12.35;;;23.40;91.50;;;;;;5014866;28;20025;-66
2021/09/26 11:03:42;;;;;;;13.88;12.45;;;23.40;91.30;;;;;;4996642;28;20149;-66
2021/09/26 11:06:23;;;;;;;;;;;23.30;91.50;;;;;;4997430;28;20043;-67
2021/09/26 11:08:57;;;;;;;18.30;15.68;;;23.40;91.40;;;;;;4996356;28;19913;-69
2021/09/26 11:11:38;;;;;;;14.32;11.45;;;23.40;91.50;;;;;;5000850;28;20030;-67
2021/09/26 11:14:05;;;;;;;13.63;12.23;;;23.50;91.40;;;;;;4996193;28;20038;-67
2021/09/26 11:16:51;;;;;;;16.58;12.65;;;23.60;91.50;;;;;;4996241;28;20114;-67
2021/09/26 11:19:17;;;;;;;13.80;12.40;;;23.70;91.10;;;;;;5020671;28;20033;-66
2021/09/26 11:21:43;;;;;;;14.30;12.73;;;23.80;91.30;;;;;;5017744;28;20162;-67
2021/09/26 11:24:11;;;;;;;19.17;14.23;;;23.90;91.20;;;;;;5015455;28;20093;-67
2021/09/26 11:27:08;;;;;;;16.15;13.68;;;23.90;91.30;;;;;;5016850;28;20046;-67
2021/09/26 11:29:37;;;;;;;16.77;13.45;;;23.80;91.10;;;;;;4983764;28;20085;-67
2021/09/26 11:32:16;;;;;;;14.20;12.77;;;23.80;91.30;;;;;;5015296;28;20033;-68
2021/09/26 11:34:45;;;;;;;14.13;12.80;;;23.90;91.20;;;;;;5015264;28;20053;-67
2021/09/26 11:37:13;;;;;;;15.80;12.07;;;24.00;91.20;;;;;;5015513;28;20026;-66
2021/09/26 11:39:40;;;;;;;15.85;12.75;;;24.10;91.20;;;;;;5015171;28;20021;-67
2021/09/26 11:42:31;;;;;;;13.70;12.05;;;24.30;91.10;;;;;;5015437;28;20126;-66
2021/09/26 11:45:01;;;;;;;12.35;11.15;;;24.40;90.80;;;;;;5014204;28;20034;-68
2021/09/26 11:47:28;;;;;;;13.27;11.88;;;24.40;90.40;;;;;;5015154;28;20493;-66
2021/09/26 11:50:01;;;;;;;13.40;12.02;;;24.20;90.30;;;;;;5014597;28;20050;-67
2021/09/26 11:52:35;;;;;;;12.27;10.90;;;24.30;90.70;;;;;;5015797;28;20227;-68
2021/09/26 11:55:00;;;;;;;15.90;11.82;;;24.30;90.50;;;;;;5015641;28;20036;-67
2021/09/26 11:57:26;;;;;;;12.38;10.90;;;24.40;90.20;;;;;;5015386;28;20128;-66
2021/09/26 11:59:52;;;;;;;13.50;10.50;;;24.40;90.20;;;;;;5015157;28;20036;-66
2021/09/26 12:02:18;;;;;;;17.63;15.45;;;24.40;89.10;;;;;;5007190;28;20038;-66
2021/09/26 12:04:44;;;;;;;15.27;12.00;;;24.40;90.10;;;;;;4974749;28;20047;-66
2021/09/26 12:07:10;;;;;;;12.85;10.10;;;24.50;89.90;;;;;;4976550;28;20077;-66
2021/09/26 12:09:42;;;;;;;11.48;10.27;;;24.60;89.50;;;;;;4975721;28;20414;-66
2021/09/26 12:12:11;;;;;;;12.30;10.68;;;24.80;89.50;;;;;;4975836;28;20102;-67
2021/09/26 12:14:38;;;;;;;11.88;10.43;;;24.90;89.50;;;;;;4975511;28;20034;-67
2021/09/26 12:17:10;;;;;;;11.38;10.27;;;24.80;89.10;;;;;;4975883;28;20124;-66
2021/09/26 12:19:36;;;;;;;11.25;10.05;;;24.80;88.40;;;;;;4975834;28;20361;-67
2021/09/26 12:22:14;;;;;;;13.25;9.50;;;24.90;88.20;;;;;;4975332;28;20042;-66
2021/09/26 12:25:06;;;;;;;11.68;9.57;;;24.80;87.30;;;;;;4977723;28;20058;-69
2021/09/26 12:27:37;;;;;;;10.38;9.27;;;24.90;87.50;;;;;;4963992;28;20066;-66
2021/09/26 12:30:14;;;;;;;14.60;11.48;;;25.10;87.20;;;;;;4975730;28;20030;-67
2021/09/26 12:32:56;;;;;;;12.68;11.38;;;25.40;86.40;;;;;;4974934;28;20464;-66
2021/09/26 12:35:28;;;;;;;10.75;9.70;;;25.40;86.50;;;;;;4975468;28;20035;-66
2021/09/26 12:37:56;;;;;;;9.40;8.02;;;25.60;86.00;;;;;;4975152;28;20039;-67